sensor_id;sensor_type;location;lat;lon;timestamp;pressure;altitude;pressure_sealevel;temperature;humidity
32747;BME280;19118;50.860;13.662;2022-10-16T00:02:55;96745.72;;;13.60;100.00
32747;BME280;19118;50.860;13.662;2022-10-16T00:07:55;96748.06;;;13.50;100.00
32747;BME280;19118;50.860;13.662;2022-10-16T00:12:56;96744.69;;;13.61;100.00
32747;BME280;19118;50.860;13.662;2022-10-16T00:17:56;96743.06;;;13.60;100.00
32747;BME280;19118;50.860;13.662;2022-10-16T00:22:57;96753.69;;;13.60;100.00
32747;BME280;19118;50.860;13.662;2022-10-16T00:27:58;96750.56;;;13.45;100.00
32747;BME280;19118;50.860;13.662;2022-10-16T00:32:58;96758.84;;;13.37;100.00
32747;BME280;19118;50.860;13.662;2022-10-16T00:37:59;96757.97;;;13.43;100.00
32747;BME280;19118;50.860;13.662;2022-10-16T00:42:59;96757.22;;;13.54;100.00
32747;BME280;19118;50.860;13.662;2022-10-16T00:48:00;96770.06;;;13.57;100.00
32747;BME280;19118;50.860;13.662;2022-10-16T00:53:01;96769.25;;;13.57;100.00
32747;BME280;19118;50.860;13.662;2022-10-16T00:58:03;96772.72;;;13.57;100.00
32747;BME280;19118;50.860;13.662;2022-10-16T01:03:40;96769.03;;;13.40;100.00
32747;BME280;19118;50.860;13.662;2022-10-16T01:08:53;96769.59;;;13.24;100.00
32747;BME280;19118;50.860;13.662;2022-10-16T01:14:02;96769.59;;;13.24;100.00
32747;BME280;19118;50.860;13.662;2022-10-16T01:19:14;96772.03;;;13.00;100.00
32747;BME280;19118;50.860;13.662;2022-10-16T01:24:33;96770.78;;;12.78;100.00
32747;BME280;19118;50.860;13.662;2022-10-16T01:29:58;96781.38;;;12.60;100.00
32747;BME280;19118;50.860;13.662;2022-10-16T01:35:10;96798.31;;;12.59;100.00
32747;BME280;19118;50.860;13.662;2022-10-16T01:40:14;96805.41;;;12.65;100.00
32747;BME280;19118;50.860;13.662;2022-10-16T01:45:17;96811.03;;;12.75;100.00
32747;BME280;19118;50.860;13.662;2022-10-16T01:50:20;96811.53;;;12.90;100.00
32747;BME280;19118;50.860;13.662;2022-10-16T01:55:29;96798.00;;;12.98;100.00
32747;BME280;19118;50.860;13.662;2022-10-16T02:00:31;96801.56;;;13.10;100.00
32747;BME280;19118;50.860;13.662;2022-10-16T02:05:47;96812.25;;;13.29;100.00
32747;BME280;19118;50.860;13.662;2022-10-16T02:10:49;96806.66;;;13.37;100.00
32747;BME280;19118;50.860;13.662;2022-10-16T02:15:49;96813.44;;;13.69;100.00
32747;BME280;19118;50.860;13.662;2022-10-16T02:20:59;96805.19;;;13.96;100.00
32747;BME280;19118;50.860;13.662;2022-10-16T02:26:03;96794.84;;;14.06;100.00
32747;BME280;19118;50.860;13.662;2022-10-16T02:31:08;96799.63;;;14.16;100.00
32747;BME280;19118;50.860;13.662;2022-10-16T02:36:11;96798.34;;;14.18;100.00
32747;BME280;19118;50.860;13.662;2022-10-16T02:41:12;96806.59;;;14.28;100.00
32747;BME280;19118;50.860;13.662;2022-10-16T02:46:12;96797.59;;;14.30;100.00
32747;BME280;19118;50.860;13.662;2022-10-16T02:51:13;96784.47;;;14.16;100.00
32747;BME280;19118;50.860;13.662;2022-10-16T02:56:13;96796.53;;;14.01;100.00
32747;BME280;19118;50.860;13.662;2022-10-16T03:01:13;96792.06;;;14.13;100.00
32747;BME280;19118;50.860;13.662;2022-10-16T03:06:16;96774.19;;;14.20;100.00
32747;BME280;19118;50.860;13.662;2022-10-16T03:11:17;96781.59;;;14.18;100.00
32747;BME280;19118;50.860;13.662;2022-10-16T03:16:17;96787.38;;;13.96;100.00
32747;BME280;19118;50.860;13.662;2022-10-16T03:21:17;96799.28;;;13.94;100.00
32747;BME280;19118;50.860;13.662;2022-10-16T03:26:18;96812.84;;;14.04;100.00
32747;BME280;19118;50.860;13.662;2022-10-16T03:31:18;96807.91;;;14.08;100.00
32747;BME280;19118;50.860;13.662;2022-10-16T03:36:19;96818.16;;;14.04;100.00
32747;BME280;19118;50.860;13.662;2022-10-16T03:41:19;96824.22;;;13.93;100.00
32747;BME280;19118;50.860;13.662;2022-10-16T03:46:19;96825.00;;;13.82;100.00
32747;BME280;19118;50.860;13.662;2022-10-16T03:51:20;96820.84;;;13.86;100.00
32747;BME280;19118;50.860;13.662;2022-10-16T03:56:20;96813.91;;;13.85;100.00
32747;BME280;19118;50.860;13.662;2022-10-16T04:01:21;96817.72;;;13.89;100.00
32747;BME280;19118;50.860;13.662;2022-10-16T04:06:21;96827.03;;;13.80;100.00
32747;BME280;19118;50.860;13.662;2022-10-16T04:11:22;96837.66;;;13.80;100.00
32747;BME280;19118;50.860;13.662;2022-10-16T04:16:22;96843.56;;;13.63;100.00
32747;BME280;19118;50.860;13.662;2022-10-16T04:21:22;96858.63;;;13.51;100.00
32747;BME280;19118;50.860;13.662;2022-10-16T04:26:23;96856.69;;;13.40;100.00
32747;BME280;19118;50.860;13.662;2022-10-16T04:31:23;96857.06;;;13.19;100.00
32747;BME280;19118;50.860;13.662;2022-10-16T04:36:24;96844.31;;;13.02;100.00
32747;BME280;19118;50.860;13.662;2022-10-16T04:41:24;96850.53;;;12.90;100.00
32747;BME280;19118;50.860;13.662;2022-10-16T04:46:24;96858.97;;;12.80;100.00
32747;BME280;19118;50.860;13.662;2022-10-16T04:51:25;96861.06;;;12.71;100.00
32747;BME280;19118;50.860;13.662;2022-10-16T04:56:26;96877.03;;;12.65;100.00
32747;BME280;19118;50.860;13.662;2022-10-16T05:01:26;96884.38;;;12.63;100.00
32747;BME280;19118;50.860;13.662;2022-10-16T05:06:27;96877.47;;;12.62;100.00
32747;BME280;19118;50.860;13.662;2022-10-16T05:11:27;96878.66;;;12.66;100.00
32747;BME280;19118;50.860;13.662;2022-10-16T05:16:28;96876.59;;;12.68;100.00
32747;BME280;19118;50.860;13.662;2022-10-16T05:21:28;96886.00;;;12.64;100.00
32747;BME280;19118;50.860;13.662;2022-10-16T05:26:29;96890.13;;;12.60;100.00
32747;BME280;19118;50.860;13.662;2022-10-16T05:31:29;96888.53;;;12.52;100.00
32747;BME280;19118;50.860;13.662;2022-10-16T05:36:29;96896.78;;;12.37;100.00
32747;BME280;19118;50.860;13.662;2022-10-16T05:41:30;96899.06;;;12.27;100.00
32747;BME280;19118;50.860;13.662;2022-10-16T05:46:32;96915.94;;;12.33;100.00
32747;BME280;19118;50.860;13.662;2022-10-16T05:51:32;96929.00;;;12.34;100.00
32747;BME280;19118;50.860;13.662;2022-10-16T05:56:33;96938.13;;;12.45;100.00
32747;BME280;19118;50.860;13.662;2022-10-16T06:01:33;96953.19;;;12.58;100.00
32747;BME280;19118;50.860;13.662;2022-10-16T06:06:35;96962.72;;;12.72;100.00
32747;BME280;19118;50.860;13.662;2022-10-16T06:11:36;96955.66;;;12.91;100.00
32747;BME280;19118;50.860;13.662;2022-10-16T06:16:37;96958.84;;;13.06;100.00
32747;BME280;19118;50.860;13.662;2022-10-16T06:21:38;96956.41;;;13.36;100.00
32747;BME280;19118;50.860;13.662;2022-10-16T06:26:38;96953.44;;;13.76;100.00
32747;BME280;19118;50.860;13.662;2022-10-16T06:31:38;96948.47;;;14.22;100.00
32747;BME280;19118;50.860;13.662;2022-10-16T06:36:39;96942.78;;;14.55;100.00
32747;BME280;19118;50.860;13.662;2022-10-16T06:41:39;96937.91;;;14.82;100.00
32747;BME280;19118;50.860;13.662;2022-10-16T06:46:49;96947.50;;;15.02;100.00
32747;BME280;19118;50.860;13.662;2022-10-16T06:51:49;96951.50;;;15.23;100.00
32747;BME280;19118;50.860;13.662;2022-10-16T06:56:51;96964.94;;;15.39;100.00
32747;BME280;19118;50.860;13.662;2022-10-16T07:01:51;96972.88;;;15.58;100.00
32747;BME280;19118;50.860;13.662;2022-10-16T07:06:51;96978.97;;;15.65;100.00
32747;BME280;19118;50.860;13.662;2022-10-16T07:11:52;96975.25;;;15.89;100.00
32747;BME280;19118;50.860;13.662;2022-10-16T07:16:53;96984.19;;;16.07;100.00
32747;BME280;19118;50.860;13.662;2022-10-16T07:21:53;96985.44;;;16.16;100.00
32747;BME280;19118;50.860;13.662;2022-10-16T07:26:54;97000.31;;;16.35;99.89
32747;BME280;19118;50.860;13.662;2022-10-16T07:31:54;97009.09;;;16.47;99.31
32747;BME280;19118;50.860;13.662;2022-10-16T07:36:54;97017.00;;;16.42;99.50
32747;BME280;19118;50.860;13.662;2022-10-16T07:41:55;97019.06;;;16.40;99.60
32747;BME280;19118;50.860;13.662;2022-10-16T07:46:56;97028.59;;;16.59;99.67
32747;BME280;19118;50.860;13.662;2022-10-16T07:51:56;97036.34;;;16.84;98.82
32747;BME280;19118;50.860;13.662;2022-10-16T07:56:57;97042.69;;;16.95;98.26
32747;BME280;19118;50.860;13.662;2022-10-16T08:01:57;97046.06;;;17.31;97.14
32747;BME280;19118;50.860;13.662;2022-10-16T08:06:57;97042.63;;;17.64;95.55
32747;BME280;19118;50.860;13.662;2022-10-16T08:11:58;97018.63;;;17.97;93.72
32747;BME280;19118;50.860;13.662;2022-10-16T08:16:58;97035.53;;;18.37;91.99
32747;BME280;19118;50.860;13.662;2022-10-16T08:21:58;97016.19;;;17.96;91.99
32747;BME280;19118;50.860;13.662;2022-10-16T08:26:59;97040.03;;;17.81;93.25
32747;BME280;19118;50.860;13.662;2022-10-16T08:31:59;97030.47;;;17.85;93.27
32747;BME280;19118;50.860;13.662;2022-10-16T08:37:00;97038.88;;;17.77;93.41
32747;BME280;19118;50.860;13.662;2022-10-16T08:42:15;97040.59;;;18.16;91.35
32747;BME280;19118;50.860;13.662;2022-10-16T08:47:23;97055.91;;;18.21;91.74
32747;BME280;19118;50.860;13.662;2022-10-16T08:52:32;97062.59;;;18.01;92.34
32747;BME280;19118;50.860;13.662;2022-10-16T08:57:33;97055.84;;;17.99;92.99
32747;BME280;19118;50.860;13.662;2022-10-16T09:02:38;97055.25;;;17.97;93.99
32747;BME280;19118;50.860;13.662;2022-10-16T09:13:21;97055.59;;;17.84;94.83
32747;BME280;19118;50.860;13.662;2022-10-16T09:18:29;97046.47;;;18.52;93.31
32747;BME280;19118;50.860;13.662;2022-10-16T09:23:37;97052.97;;;18.95;91.01
32747;BME280;19118;50.860;13.662;2022-10-16T09:28:37;97063.94;;;19.64;87.41
32747;BME280;19118;50.860;13.662;2022-10-16T09:33:39;97064.50;;;20.30;82.88
32747;BME280;19118;50.860;13.662;2022-10-16T09:38:40;97059.53;;;20.12;83.28
32747;BME280;19118;50.860;13.662;2022-10-16T09:43:53;97063.69;;;20.67;82.17
32747;BME280;19118;50.860;13.662;2022-10-16T09:49:01;97066.31;;;20.56;80.07
32747;BME280;19118;50.860;13.662;2022-10-16T09:59:20;97077.72;;;20.74;79.87
32747;BME280;19118;50.860;13.662;2022-10-16T10:04:23;97088.69;;;20.67;79.58
32747;BME280;19118;50.860;13.662;2022-10-16T10:09:38;97094.84;;;20.30;81.76
32747;BME280;19118;50.860;13.662;2022-10-16T10:14:44;97107.06;;;20.43;82.14
32747;BME280;19118;50.860;13.662;2022-10-16T10:30:13;97124.91;;;19.95;83.06
32747;BME280;19118;50.860;13.662;2022-10-16T10:40:37;97124.41;;;20.03;80.37
32747;BME280;19118;50.860;13.662;2022-10-16T10:45:47;97125.06;;;20.43;80.96
32747;BME280;19118;50.860;13.662;2022-10-16T10:51:01;97133.09;;;20.75;80.11
32747;BME280;19118;50.860;13.662;2022-10-16T11:07:05;97144.47;;;20.92;78.15
32747;BME280;19118;50.860;13.662;2022-10-16T11:17:14;97134.34;;;20.62;78.60
32747;BME280;19118;50.860;13.662;2022-10-16T11:22:22;97143.16;;;20.57;78.63
32747;BME280;19118;50.860;13.662;2022-10-16T11:27:44;97146.38;;;20.54;79.54
32747;BME280;19118;50.860;13.662;2022-10-16T11:38:14;97135.97;;;21.10;77.92
32747;BME280;19118;50.860;13.662;2022-10-16T11:43:26;97145.31;;;21.50;76.29
32747;BME280;19118;50.860;13.662;2022-10-16T11:48:36;97158.88;;;21.75;75.38
32747;BME280;19118;50.860;13.662;2022-10-16T11:53:53;97145.97;;;21.83;74.36
32747;BME280;19118;50.860;13.662;2022-10-16T11:59:01;97144.72;;;22.16;73.49
32747;BME280;19118;50.860;13.662;2022-10-16T12:04:31;97150.66;;;22.48;71.76
32747;BME280;19118;50.860;13.662;2022-10-16T12:09:37;97151.31;;;21.67;73.40
32747;BME280;19118;50.860;13.662;2022-10-16T12:14:39;97154.91;;;21.26;75.68
32747;BME280;19118;50.860;13.662;2022-10-16T12:19:40;97154.94;;;21.31;75.89
32747;BME280;19118;50.860;13.662;2022-10-16T12:24:42;97155.63;;;21.73;75.07
32747;BME280;19118;50.860;13.662;2022-10-16T12:29:43;97158.97;;;22.06;73.48
32747;BME280;19118;50.860;13.662;2022-10-16T12:34:44;97156.78;;;21.98;72.70
32747;BME280;19118;50.860;13.662;2022-10-16T12:39:46;97176.97;;;22.00;72.95
32747;BME280;19118;50.860;13.662;2022-10-16T12:44:47;97164.66;;;22.50;71.60
32747;BME280;19118;50.860;13.662;2022-10-16T12:49:51;97168.06;;;21.95;72.84
32747;BME280;19118;50.860;13.662;2022-10-16T12:54:56;97178.91;;;22.15;72.63
32747;BME280;19118;50.860;13.662;2022-10-16T13:16:11;97181.91;;;22.64;71.25
32747;BME280;19118;50.860;13.662;2022-10-16T13:21:28;97176.81;;;22.88;71.30
32747;BME280;19118;50.860;13.662;2022-10-16T13:31:44;97173.28;;;22.73;72.10
32747;BME280;19118;50.860;13.662;2022-10-16T13:36:48;97183.75;;;22.08;73.97
32747;BME280;19118;50.860;13.662;2022-10-16T13:42:10;97179.75;;;21.48;76.10
32747;BME280;19118;50.860;13.662;2022-10-16T13:47:21;97182.31;;;21.22;77.68
32747;BME280;19118;50.860;13.662;2022-10-16T13:52:21;97189.19;;;21.03;79.21
32747;BME280;19118;50.860;13.662;2022-10-16T13:57:24;97195.47;;;20.82;80.53
32747;BME280;19118;50.860;13.662;2022-10-16T14:02:34;97199.94;;;20.66;81.89
32747;BME280;19118;50.860;13.662;2022-10-16T14:07:36;97202.66;;;20.39;82.42
32747;BME280;19118;50.860;13.662;2022-10-16T14:12:37;97208.47;;;20.31;85.02
32747;BME280;19118;50.860;13.662;2022-10-16T14:17:43;97210.97;;;20.11;87.67
32747;BME280;19118;50.860;13.662;2022-10-16T14:22:45;97206.16;;;20.40;87.11
32747;BME280;19118;50.860;13.662;2022-10-16T14:28:04;97212.69;;;20.81;84.28
32747;BME280;19118;50.860;13.662;2022-10-16T14:33:19;97211.50;;;20.67;82.42
32747;BME280;19118;50.860;13.662;2022-10-16T14:38:20;97206.28;;;20.87;80.80
32747;BME280;19118;50.860;13.662;2022-10-16T14:43:26;97209.31;;;20.96;80.92
32747;BME280;19118;50.860;13.662;2022-10-16T14:48:29;97216.44;;;20.80;81.60
32747;BME280;19118;50.860;13.662;2022-10-16T14:53:29;97225.66;;;20.57;82.42
32747;BME280;19118;50.860;13.662;2022-10-16T14:58:29;97234.31;;;20.37;82.96
32747;BME280;19118;50.860;13.662;2022-10-16T15:03:30;97243.47;;;20.14;83.46
32747;BME280;19118;50.860;13.662;2022-10-16T15:08:30;97241.25;;;20.06;84.71
32747;BME280;19118;50.860;13.662;2022-10-16T15:13:30;97238.59;;;19.84;86.14
32747;BME280;19118;50.860;13.662;2022-10-16T15:18:31;97251.88;;;19.74;87.33
32747;BME280;19118;50.860;13.662;2022-10-16T15:23:31;97254.22;;;19.48;85.49
32747;BME280;19118;50.860;13.662;2022-10-16T15:28:31;97257.63;;;19.44;85.67
32747;BME280;19118;50.860;13.662;2022-10-16T15:33:32;97266.63;;;19.16;85.32
32747;BME280;19118;50.860;13.662;2022-10-16T15:38:35;97273.69;;;18.88;85.64
32747;BME280;19118;50.860;13.662;2022-10-16T15:43:35;97273.69;;;18.43;87.44
32747;BME280;19118;50.860;13.662;2022-10-16T15:48:35;97288.19;;;18.02;88.76
32747;BME280;19118;50.860;13.662;2022-10-16T15:53:36;97295.81;;;17.58;91.83
32747;BME280;19118;50.860;13.662;2022-10-16T15:58:36;97289.31;;;17.07;97.06
32747;BME280;19118;50.860;13.662;2022-10-16T16:03:38;97294.44;;;16.55;100.00
32747;BME280;19118;50.860;13.662;2022-10-16T16:08:40;97295.41;;;16.13;100.00
32747;BME280;19118;50.860;13.662;2022-10-16T16:13:41;97308.19;;;15.74;100.00
32747;BME280;19118;50.860;13.662;2022-10-16T16:18:42;97321.63;;;15.42;100.00
32747;BME280;19118;50.860;13.662;2022-10-16T16:23:42;97323.13;;;15.13;100.00
32747;BME280;19118;50.860;13.662;2022-10-16T16:28:43;97321.53;;;14.81;100.00
32747;BME280;19118;50.860;13.662;2022-10-16T16:33:43;97330.53;;;14.55;100.00
32747;BME280;19118;50.860;13.662;2022-10-16T16:38:45;97341.50;;;14.27;100.00
32747;BME280;19118;50.860;13.662;2022-10-16T16:43:45;97349.56;;;14.07;100.00
32747;BME280;19118;50.860;13.662;2022-10-16T16:48:47;97366.41;;;13.88;100.00
32747;BME280;19118;50.860;13.662;2022-10-16T16:53:51;97375.44;;;13.67;100.00
32747;BME280;19118;50.860;13.662;2022-10-16T16:58:54;97384.88;;;13.50;100.00
32747;BME280;19118;50.860;13.662;2022-10-16T17:03:56;97403.28;;;13.45;100.00
32747;BME280;19118;50.860;13.662;2022-10-16T17:08:58;97402.84;;;13.54;100.00
32747;BME280;19118;50.860;13.662;2022-10-16T17:13:59;97399.19;;;13.49;100.00
32747;BME280;19118;50.860;13.662;2022-10-16T17:19:01;97416.34;;;13.33;100.00
32747;BME280;19118;50.860;13.662;2022-10-16T17:24:03;97418.56;;;13.16;100.00
32747;BME280;19118;50.860;13.662;2022-10-16T17:29:04;97423.84;;;12.96;100.00
32747;BME280;19118;50.860;13.662;2022-10-16T17:34:06;97433.03;;;12.87;100.00
32747;BME280;19118;50.860;13.662;2022-10-16T17:39:07;97431.38;;;12.73;100.00
32747;BME280;19118;50.860;13.662;2022-10-16T17:44:09;97437.88;;;12.64;100.00
32747;BME280;19118;50.860;13.662;2022-10-16T17:49:10;97452.09;;;12.49;100.00
32747;BME280;19118;50.860;13.662;2022-10-16T17:54:11;97452.44;;;12.33;100.00
32747;BME280;19118;50.860;13.662;2022-10-16T17:59:13;97456.03;;;12.19;100.00
32747;BME280;19118;50.860;13.662;2022-10-16T18:04:15;97463.16;;;12.12;100.00
32747;BME280;19118;50.860;13.662;2022-10-16T18:09:17;97477.59;;;12.03;100.00
32747;BME280;19118;50.860;13.662;2022-10-16T18:14:18;97486.28;;;11.97;100.00
32747;BME280;19118;50.860;13.662;2022-10-16T18:19:19;97496.56;;;12.06;100.00
32747;BME280;19118;50.860;13.662;2022-10-16T18:24:21;97494.56;;;12.15;100.00
32747;BME280;19118;50.860;13.662;2022-10-16T18:29:26;97498.63;;;12.11;100.00
32747;BME280;19118;50.860;13.662;2022-10-16T18:34:26;97513.41;;;11.99;100.00
32747;BME280;19118;50.860;13.662;2022-10-16T18:39:27;97514.44;;;11.98;100.00
32747;BME280;19118;50.860;13.662;2022-10-16T18:44:27;97518.78;;;12.05;100.00
32747;BME280;19118;50.860;13.662;2022-10-16T18:49:28;97507.84;;;12.15;100.00
32747;BME280;19118;50.860;13.662;2022-10-16T18:54:29;97510.34;;;12.30;100.00
32747;BME280;19118;50.860;13.662;2022-10-16T18:59:29;97512.03;;;12.37;100.00
32747;BME280;19118;50.860;13.662;2022-10-16T19:04:30;97511.84;;;12.45;100.00
32747;BME280;19118;50.860;13.662;2022-10-16T19:09:30;97520.72;;;12.59;100.00
32747;BME280;19118;50.860;13.662;2022-10-16T19:14:31;97522.00;;;12.70;100.00
32747;BME280;19118;50.860;13.662;2022-10-16T19:19:32;97510.00;;;12.80;100.00
32747;BME280;19118;50.860;13.662;2022-10-16T19:24:32;97523.88;;;12.89;100.00
32747;BME280;19118;50.860;13.662;2022-10-16T19:29:34;97531.06;;;13.02;100.00
32747;BME280;19118;50.860;13.662;2022-10-16T19:34:34;97536.81;;;13.12;100.00
32747;BME280;19118;50.860;13.662;2022-10-16T19:39:34;97527.91;;;13.20;100.00
32747;BME280;19118;50.860;13.662;2022-10-16T19:44:35;97554.84;;;13.17;100.00
32747;BME280;19118;50.860;13.662;2022-10-16T19:49:35;97539.28;;;13.07;100.00
32747;BME280;19118;50.860;13.662;2022-10-16T19:54:36;97545.41;;;13.07;100.00
32747;BME280;19118;50.860;13.662;2022-10-16T19:59:38;97550.34;;;13.17;100.00
32747;BME280;19118;50.860;13.662;2022-10-16T20:04:38;97549.16;;;13.33;100.00
32747;BME280;19118;50.860;13.662;2022-10-16T20:09:39;97557.38;;;13.51;100.00
32747;BME280;19118;50.860;13.662;2022-10-16T20:14:39;97562.53;;;13.59;100.00
32747;BME280;19118;50.860;13.662;2022-10-16T20:19:39;97563.09;;;13.55;100.00
32747;BME280;19118;50.860;13.662;2022-10-16T20:24:40;97567.41;;;13.62;100.00
32747;BME280;19118;50.860;13.662;2022-10-16T20:29:40;97566.16;;;13.58;100.00
32747;BME280;19118;50.860;13.662;2022-10-16T20:34:40;97566.41;;;13.63;100.00
32747;BME280;19118;50.860;13.662;2022-10-16T20:39:46;97567.63;;;13.67;100.00
32747;BME280;19118;50.860;13.662;2022-10-16T20:44:46;97570.06;;;13.69;100.00
32747;BME280;19118;50.860;13.662;2022-10-16T20:49:47;97576.19;;;13.69;100.00
32747;BME280;19118;50.860;13.662;2022-10-16T20:54:47;97589.09;;;13.73;100.00
32747;BME280;19118;50.860;13.662;2022-10-16T20:59:48;97588.50;;;13.71;100.00
32747;BME280;19118;50.860;13.662;2022-10-16T21:04:49;97586.44;;;13.59;100.00
32747;BME280;19118;50.860;13.662;2022-10-16T21:09:50;97591.69;;;13.39;100.00
32747;BME280;19118;50.860;13.662;2022-10-16T21:14:50;97595.31;;;13.19;100.00
32747;BME280;19118;50.860;13.662;2022-10-16T21:19:51;97607.25;;;12.95;100.00
32747;BME280;19118;50.860;13.662;2022-10-16T21:24:51;97617.91;;;12.67;100.00
32747;BME280;19118;50.860;13.662;2022-10-16T21:29:52;97625.06;;;12.38;100.00
32747;BME280;19118;50.860;13.662;2022-10-16T21:34:53;97639.78;;;12.13;100.00
32747;BME280;19118;50.860;13.662;2022-10-16T21:39:54;97637.75;;;11.93;100.00
32747;BME280;19118;50.860;13.662;2022-10-16T21:44:55;97639.63;;;11.78;100.00
32747;BME280;19118;50.860;13.662;2022-10-16T21:49:55;97648.97;;;11.74;100.00
32747;BME280;19118;50.860;13.662;2022-10-16T21:54:56;97645.78;;;11.64;100.00
32747;BME280;19118;50.860;13.662;2022-10-16T21:59:56;97639.88;;;11.62;100.00
32747;BME280;19118;50.860;13.662;2022-10-16T22:04:56;97633.19;;;11.45;100.00
32747;BME280;19118;50.860;13.662;2022-10-16T22:09:57;97646.53;;;11.36;100.00
32747;BME280;19118;50.860;13.662;2022-10-16T22:14:57;97636.31;;;11.33;100.00
32747;BME280;19118;50.860;13.662;2022-10-16T22:19:57;97632.91;;;11.40;100.00
32747;BME280;19118;50.860;13.662;2022-10-16T22:24:58;97643.91;;;11.58;100.00
32747;BME280;19118;50.860;13.662;2022-10-16T22:29:59;97648.63;;;11.62;100.00
32747;BME280;19118;50.860;13.662;2022-10-16T22:34:59;97652.88;;;11.78;100.00
32747;BME280;19118;50.860;13.662;2022-10-16T22:39:59;97663.75;;;11.83;100.00
32747;BME280;19118;50.860;13.662;2022-10-16T22:45:00;97656.81;;;11.82;100.00
32747;BME280;19118;50.860;13.662;2022-10-16T22:50:00;97653.75;;;11.64;100.00
32747;BME280;19118;50.860;13.662;2022-10-16T22:55:01;97652.69;;;11.44;100.00
32747;BME280;19118;50.860;13.662;2022-10-16T23:00:04;97655.19;;;11.30;100.00
32747;BME280;19118;50.860;13.662;2022-10-16T23:05:09;97661.34;;;11.16;100.00
32747;BME280;19118;50.860;13.662;2022-10-16T23:10:09;97664.09;;;11.08;100.00
32747;BME280;19118;50.860;13.662;2022-10-16T23:15:09;97667.09;;;11.05;100.00
32747;BME280;19118;50.860;13.662;2022-10-16T23:20:10;97672.78;;;11.02;100.00
32747;BME280;19118;50.860;13.662;2022-10-16T23:25:10;97677.72;;;10.90;100.00
32747;BME280;19118;50.860;13.662;2022-10-16T23:30:11;97674.25;;;10.90;100.00
32747;BME280;19118;50.860;13.662;2022-10-16T23:35:11;97675.31;;;10.81;100.00
32747;BME280;19118;50.860;13.662;2022-10-16T23:40:12;97668.22;;;10.81;100.00
32747;BME280;19118;50.860;13.662;2022-10-16T23:45:12;97673.59;;;10.88;100.00
32747;BME280;19118;50.860;13.662;2022-10-16T23:50:12;97674.13;;;10.98;100.00
32747;BME280;19118;50.860;13.662;2022-10-16T23:55:13;97685.09;;;10.95;100.00
